sensor_id;sensor_type;location;lat;lon;timestamp;temperature;humidity
15707;DHT22;7953;54.302;10.128;2023-11-19T00:00:30;5.00;99.90
15707;DHT22;7953;54.302;10.128;2023-11-19T00:02:57;5.10;99.90
15707;DHT22;7953;54.302;10.128;2023-11-19T00:05:24;5.10;99.90
15707;DHT22;7953;54.302;10.128;2023-11-19T00:07:51;5.00;99.90
15707;DHT22;7953;54.302;10.128;2023-11-19T00:10:17;5.00;99.90
15707;DHT22;7953;54.302;10.128;2023-11-19T00:12:48;5.00;99.90
15707;DHT22;7953;54.302;10.128;2023-11-19T00:15:16;5.00;99.90
15707;DHT22;7953;54.302;10.128;2023-11-19T00:17:45;5.00;99.90
15707;DHT22;7953;54.302;10.128;2023-11-19T00:20:12;5.00;99.90
15707;DHT22;7953;54.302;10.128;2023-11-19T00:22:40;5.00;99.90
15707;DHT22;7953;54.302;10.128;2023-11-19T00:25:08;5.00;99.90
15707;DHT22;7953;54.302;10.128;2023-11-19T00:27:35;5.10;99.90
15707;DHT22;7953;54.302;10.128;2023-11-19T00:30:05;5.10;99.90
15707;DHT22;7953;54.302;10.128;2023-11-19T00:32:32;5.00;99.90
15707;DHT22;7953;54.302;10.128;2023-11-19T00:34:59;5.00;99.90
15707;DHT22;7953;54.302;10.128;2023-11-19T00:37:26;5.00;99.90
15707;DHT22;7953;54.302;10.128;2023-11-19T00:39:53;5.00;99.90
15707;DHT22;7953;54.302;10.128;2023-11-19T00:42:21;5.00;99.90
15707;DHT22;7953;54.302;10.128;2023-11-19T00:44:49;5.10;99.90
15707;DHT22;7953;54.302;10.128;2023-11-19T00:47:18;5.10;99.90
15707;DHT22;7953;54.302;10.128;2023-11-19T00:49:46;5.10;99.90
15707;DHT22;7953;54.302;10.128;2023-11-19T00:52:14;5.10;99.90
15707;DHT22;7953;54.302;10.128;2023-11-19T00:54:41;5.10;99.90
15707;DHT22;7953;54.302;10.128;2023-11-19T00:57:08;5.10;99.90
15707;DHT22;7953;54.302;10.128;2023-11-19T00:59:35;5.10;99.90
15707;DHT22;7953;54.302;10.128;2023-11-19T01:02:03;5.10;99.90
15707;DHT22;7953;54.302;10.128;2023-11-19T01:04:34;5.10;99.90
15707;DHT22;7953;54.302;10.128;2023-11-19T01:07:01;5.10;99.90
15707;DHT22;7953;54.302;10.128;2023-11-19T01:09:30;5.10;99.90
15707;DHT22;7953;54.302;10.128;2023-11-19T01:12:00;5.10;99.90
15707;DHT22;7953;54.302;10.128;2023-11-19T01:14:27;5.10;99.90
15707;DHT22;7953;54.302;10.128;2023-11-19T01:16:54;5.10;99.90
15707;DHT22;7953;54.302;10.128;2023-11-19T01:19:21;5.10;99.90
15707;DHT22;7953;54.302;10.128;2023-11-19T01:21:50;5.10;99.90
15707;DHT22;7953;54.302;10.128;2023-11-19T01:24:17;5.10;99.90
15707;DHT22;7953;54.302;10.128;2023-11-19T01:26:44;5.10;99.90
15707;DHT22;7953;54.302;10.128;2023-11-19T01:29:12;5.20;99.90
15707;DHT22;7953;54.302;10.128;2023-11-19T01:31:40;5.20;99.90
15707;DHT22;7953;54.302;10.128;2023-11-19T01:34:07;5.20;99.90
15707;DHT22;7953;54.302;10.128;2023-11-19T01:36:34;5.20;99.90
15707;DHT22;7953;54.302;10.128;2023-11-19T01:39:02;5.20;99.90
15707;DHT22;7953;54.302;10.128;2023-11-19T01:41:33;5.20;99.90
15707;DHT22;7953;54.302;10.128;2023-11-19T01:44:00;5.20;99.90
15707;DHT22;7953;54.302;10.128;2023-11-19T01:46:27;5.20;99.90
15707;DHT22;7953;54.302;10.128;2023-11-19T01:48:55;5.20;99.90
15707;DHT22;7953;54.302;10.128;2023-11-19T01:51:22;5.20;99.90
15707;DHT22;7953;54.302;10.128;2023-11-19T01:53:50;5.20;99.90
15707;DHT22;7953;54.302;10.128;2023-11-19T01:56:20;5.20;99.90
15707;DHT22;7953;54.302;10.128;2023-11-19T01:58:48;5.20;99.90
15707;DHT22;7953;54.302;10.128;2023-11-19T02:01:16;5.20;99.90
15707;DHT22;7953;54.302;10.128;2023-11-19T02:03:43;5.20;99.90
15707;DHT22;7953;54.302;10.128;2023-11-19T02:06:10;5.20;99.90
15707;DHT22;7953;54.302;10.128;2023-11-19T02:08:37;5.20;99.90
15707;DHT22;7953;54.302;10.128;2023-11-19T02:11:04;5.20;99.90
15707;DHT22;7953;54.302;10.128;2023-11-19T02:13:34;5.20;99.90
15707;DHT22;7953;54.302;10.128;2023-11-19T02:16:02;5.20;99.90
15707;DHT22;7953;54.302;10.128;2023-11-19T02:18:29;5.20;99.90
15707;DHT22;7953;54.302;10.128;2023-11-19T02:20:56;5.20;99.90
15707;DHT22;7953;54.302;10.128;2023-11-19T02:23:25;5.30;99.90
15707;DHT22;7953;54.302;10.128;2023-11-19T02:26:02;5.30;99.90
15707;DHT22;7953;54.302;10.128;2023-11-19T02:28:32;5.30;99.90
15707;DHT22;7953;54.302;10.128;2023-11-19T02:30:59;5.30;99.90
15707;DHT22;7953;54.302;10.128;2023-11-19T02:33:26;5.20;99.90
15707;DHT22;7953;54.302;10.128;2023-11-19T02:35:53;5.30;99.90
15707;DHT22;7953;54.302;10.128;2023-11-19T02:38:20;5.30;99.90
15707;DHT22;7953;54.302;10.128;2023-11-19T02:40:48;5.30;99.90
15707;DHT22;7953;54.302;10.128;2023-11-19T02:43:15;5.30;99.90
15707;DHT22;7953;54.302;10.128;2023-11-19T02:45:44;5.30;99.90
15707;DHT22;7953;54.302;10.128;2023-11-19T02:48:11;5.20;99.90
15707;DHT22;7953;54.302;10.128;2023-11-19T02:50:39;5.20;99.90
15707;DHT22;7953;54.302;10.128;2023-11-19T02:53:06;5.30;99.90
15707;DHT22;7953;54.302;10.128;2023-11-19T02:55:34;5.30;99.90
15707;DHT22;7953;54.302;10.128;2023-11-19T02:58:03;5.30;99.90
15707;DHT22;7953;54.302;10.128;2023-11-19T03:00:35;5.30;99.90
15707;DHT22;7953;54.302;10.128;2023-11-19T03:03:09;5.20;99.90
15707;DHT22;7953;54.302;10.128;2023-11-19T03:05:45;5.30;99.90
15707;DHT22;7953;54.302;10.128;2023-11-19T03:08:14;5.30;99.90
15707;DHT22;7953;54.302;10.128;2023-11-19T03:10:42;5.30;99.90
15707;DHT22;7953;54.302;10.128;2023-11-19T03:13:11;5.30;99.90
15707;DHT22;7953;54.302;10.128;2023-11-19T03:15:38;5.30;99.90
15707;DHT22;7953;54.302;10.128;2023-11-19T03:18:05;5.30;99.90
15707;DHT22;7953;54.302;10.128;2023-11-19T03:20:33;5.20;99.90
15707;DHT22;7953;54.302;10.128;2023-11-19T03:23:00;5.30;99.90
15707;DHT22;7953;54.302;10.128;2023-11-19T03:25:27;5.30;99.90
15707;DHT22;7953;54.302;10.128;2023-11-19T03:27:58;5.30;99.90
15707;DHT22;7953;54.302;10.128;2023-11-19T03:30:26;5.30;99.90
15707;DHT22;7953;54.302;10.128;2023-11-19T03:32:54;5.30;99.90
15707;DHT22;7953;54.302;10.128;2023-11-19T03:35:20;5.30;99.90
15707;DHT22;7953;54.302;10.128;2023-11-19T03:37:49;5.30;99.90
15707;DHT22;7953;54.302;10.128;2023-11-19T03:40:16;5.30;99.90
15707;DHT22;7953;54.302;10.128;2023-11-19T03:42:44;5.30;99.90
15707;DHT22;7953;54.302;10.128;2023-11-19T03:45:11;5.30;99.90
15707;DHT22;7953;54.302;10.128;2023-11-19T03:47:38;5.30;99.90
15707;DHT22;7953;54.302;10.128;2023-11-19T03:50:07;5.30;99.90
15707;DHT22;7953;54.302;10.128;2023-11-19T03:52:34;5.40;99.90
15707;DHT22;7953;54.302;10.128;2023-11-19T03:55:03;5.40;99.90
15707;DHT22;7953;54.302;10.128;2023-11-19T03:57:31;5.40;99.90
15707;DHT22;7953;54.302;10.128;2023-11-19T03:59:57;5.40;99.90
15707;DHT22;7953;54.302;10.128;2023-11-19T04:02:25;5.40;99.90
15707;DHT22;7953;54.302;10.128;2023-11-19T04:04:54;5.40;99.90
15707;DHT22;7953;54.302;10.128;2023-11-19T04:07:21;5.40;99.90
15707;DHT22;7953;54.302;10.128;2023-11-19T04:09:48;5.40;99.90
15707;DHT22;7953;54.302;10.128;2023-11-19T04:12:17;5.40;99.90
15707;DHT22;7953;54.302;10.128;2023-11-19T04:14:45;5.40;99.90
15707;DHT22;7953;54.302;10.128;2023-11-19T04:17:12;5.50;99.90
15707;DHT22;7953;54.302;10.128;2023-11-19T04:19:39;5.50;99.90
15707;DHT22;7953;54.302;10.128;2023-11-19T04:22:07;5.50;99.90
15707;DHT22;7953;54.302;10.128;2023-11-19T04:24:35;5.50;99.90
15707;DHT22;7953;54.302;10.128;2023-11-19T04:27:01;5.50;99.90
15707;DHT22;7953;54.302;10.128;2023-11-19T04:29:30;5.60;99.90
15707;DHT22;7953;54.302;10.128;2023-11-19T04:31:57;5.50;99.90
15707;DHT22;7953;54.302;10.128;2023-11-19T04:34:24;5.60;99.90
15707;DHT22;7953;54.302;10.128;2023-11-19T04:36:51;5.60;99.90
15707;DHT22;7953;54.302;10.128;2023-11-19T04:39:18;5.50;99.90
15707;DHT22;7953;54.302;10.128;2023-11-19T04:41:48;5.60;99.90
15707;DHT22;7953;54.302;10.128;2023-11-19T04:44:17;5.50;99.90
15707;DHT22;7953;54.302;10.128;2023-11-19T04:46:45;5.60;99.90
15707;DHT22;7953;54.302;10.128;2023-11-19T04:49:13;5.50;99.90
15707;DHT22;7953;54.302;10.128;2023-11-19T04:51:40;5.50;99.90
15707;DHT22;7953;54.302;10.128;2023-11-19T04:54:08;5.50;99.90
15707;DHT22;7953;54.302;10.128;2023-11-19T04:56:35;5.50;99.90
15707;DHT22;7953;54.302;10.128;2023-11-19T04:59:03;5.60;99.90
15707;DHT22;7953;54.302;10.128;2023-11-19T05:01:31;5.60;99.90
15707;DHT22;7953;54.302;10.128;2023-11-19T05:03:59;5.60;99.90
15707;DHT22;7953;54.302;10.128;2023-11-19T05:06:27;5.60;99.90
15707;DHT22;7953;54.302;10.128;2023-11-19T05:08:54;5.60;99.90
15707;DHT22;7953;54.302;10.128;2023-11-19T05:11:21;5.60;99.90
15707;DHT22;7953;54.302;10.128;2023-11-19T05:13:48;5.60;99.90
15707;DHT22;7953;54.302;10.128;2023-11-19T05:16:15;5.60;99.90
15707;DHT22;7953;54.302;10.128;2023-11-19T05:18:43;5.60;99.90
15707;DHT22;7953;54.302;10.128;2023-11-19T05:21:12;5.60;99.90
15707;DHT22;7953;54.302;10.128;2023-11-19T05:23:39;5.70;99.90
15707;DHT22;7953;54.302;10.128;2023-11-19T05:26:06;5.70;99.90
15707;DHT22;7953;54.302;10.128;2023-11-19T05:28:33;5.70;99.90
15707;DHT22;7953;54.302;10.128;2023-11-19T05:31:00;5.60;99.90
15707;DHT22;7953;54.302;10.128;2023-11-19T05:33:27;5.70;99.90
15707;DHT22;7953;54.302;10.128;2023-11-19T05:35:54;5.80;99.90
15707;DHT22;7953;54.302;10.128;2023-11-19T05:38:24;5.80;99.90
15707;DHT22;7953;54.302;10.128;2023-11-19T05:40:50;5.90;99.90
15707;DHT22;7953;54.302;10.128;2023-11-19T05:43:17;5.90;99.90
15707;DHT22;7953;54.302;10.128;2023-11-19T05:45:44;5.90;99.90
15707;DHT22;7953;54.302;10.128;2023-11-19T05:48:11;6.00;99.90
15707;DHT22;7953;54.302;10.128;2023-11-19T05:50:38;6.00;99.90
15707;DHT22;7953;54.302;10.128;2023-11-19T05:53:05;6.10;99.90
15707;DHT22;7953;54.302;10.128;2023-11-19T05:55:37;6.10;99.90
15707;DHT22;7953;54.302;10.128;2023-11-19T05:58:10;6.10;99.90
15707;DHT22;7953;54.302;10.128;2023-11-19T06:00:38;6.10;99.90
15707;DHT22;7953;54.302;10.128;2023-11-19T06:03:05;6.10;99.90
15707;DHT22;7953;54.302;10.128;2023-11-19T06:05:33;6.10;99.90
15707;DHT22;7953;54.302;10.128;2023-11-19T06:08:00;6.10;99.90
15707;DHT22;7953;54.302;10.128;2023-11-19T06:10:27;6.10;99.90
15707;DHT22;7953;54.302;10.128;2023-11-19T06:12:58;6.10;99.90
15707;DHT22;7953;54.302;10.128;2023-11-19T06:15:25;6.10;99.90
15707;DHT22;7953;54.302;10.128;2023-11-19T06:17:52;6.10;99.90
15707;DHT22;7953;54.302;10.128;2023-11-19T06:20:20;6.20;99.90
15707;DHT22;7953;54.302;10.128;2023-11-19T06:22:47;6.20;99.90
15707;DHT22;7953;54.302;10.128;2023-11-19T06:25:14;6.10;99.90
15707;DHT22;7953;54.302;10.128;2023-11-19T06:27:41;6.20;99.90
15707;DHT22;7953;54.302;10.128;2023-11-19T06:30:11;6.40;99.90
15707;DHT22;7953;54.302;10.128;2023-11-19T06:32:38;6.30;99.90
15707;DHT22;7953;54.302;10.128;2023-11-19T06:35:06;6.30;99.90
15707;DHT22;7953;54.302;10.128;2023-11-19T06:37:34;6.40;99.90
15707;DHT22;7953;54.302;10.128;2023-11-19T06:40:01;6.50;99.90
15707;DHT22;7953;54.302;10.128;2023-11-19T06:42:28;6.50;99.90
15707;DHT22;7953;54.302;10.128;2023-11-19T06:44:55;6.70;99.90
15707;DHT22;7953;54.302;10.128;2023-11-19T06:47:25;6.80;99.90
15707;DHT22;7953;54.302;10.128;2023-11-19T06:49:52;6.90;99.90
15707;DHT22;7953;54.302;10.128;2023-11-19T06:52:19;6.90;99.90
15707;DHT22;7953;54.302;10.128;2023-11-19T06:54:46;6.90;99.90
15707;DHT22;7953;54.302;10.128;2023-11-19T06:57:13;7.00;99.90
15707;DHT22;7953;54.302;10.128;2023-11-19T06:59:40;7.10;99.90
15707;DHT22;7953;54.302;10.128;2023-11-19T07:02:07;7.20;99.90
15707;DHT22;7953;54.302;10.128;2023-11-19T07:04:35;7.20;99.90
15707;DHT22;7953;54.302;10.128;2023-11-19T07:07:02;7.20;99.90
15707;DHT22;7953;54.302;10.128;2023-11-19T07:09:31;7.20;99.90
15707;DHT22;7953;54.302;10.128;2023-11-19T07:11:58;7.30;99.90
15707;DHT22;7953;54.302;10.128;2023-11-19T07:14:27;7.30;99.90
15707;DHT22;7953;54.302;10.128;2023-11-19T07:16:54;7.40;99.90
15707;DHT22;7953;54.302;10.128;2023-11-19T07:19:21;7.40;99.90
15707;DHT22;7953;54.302;10.128;2023-11-19T07:21:49;7.40;99.90
15707;DHT22;7953;54.302;10.128;2023-11-19T07:24:16;7.50;99.90
15707;DHT22;7953;54.302;10.128;2023-11-19T07:26:43;7.50;99.90
15707;DHT22;7953;54.302;10.128;2023-11-19T07:29:10;7.50;99.90
15707;DHT22;7953;54.302;10.128;2023-11-19T07:31:37;7.60;99.90
15707;DHT22;7953;54.302;10.128;2023-11-19T07:34:04;7.60;99.90
15707;DHT22;7953;54.302;10.128;2023-11-19T07:36:32;7.60;99.90
15707;DHT22;7953;54.302;10.128;2023-11-19T07:39:00;7.70;99.90
15707;DHT22;7953;54.302;10.128;2023-11-19T07:41:27;7.70;99.90
15707;DHT22;7953;54.302;10.128;2023-11-19T07:43:55;7.70;99.90
15707;DHT22;7953;54.302;10.128;2023-11-19T07:46:22;7.70;99.90
15707;DHT22;7953;54.302;10.128;2023-11-19T07:48:49;7.70;99.90
15707;DHT22;7953;54.302;10.128;2023-11-19T07:51:15;7.90;99.90
15707;DHT22;7953;54.302;10.128;2023-11-19T07:53:42;7.90;99.90
15707;DHT22;7953;54.302;10.128;2023-11-19T07:56:11;8.00;99.90
15707;DHT22;7953;54.302;10.128;2023-11-19T07:58:38;8.20;99.90
15707;DHT22;7953;54.302;10.128;2023-11-19T08:01:05;8.40;99.90
15707;DHT22;7953;54.302;10.128;2023-11-19T08:03:32;8.50;99.90
15707;DHT22;7953;54.302;10.128;2023-11-19T08:06:00;8.60;99.90
15707;DHT22;7953;54.302;10.128;2023-11-19T08:08:27;8.70;99.90
15707;DHT22;7953;54.302;10.128;2023-11-19T08:10:55;8.70;99.90
15707;DHT22;7953;54.302;10.128;2023-11-19T08:13:23;8.80;99.90
15707;DHT22;7953;54.302;10.128;2023-11-19T08:15:50;8.90;99.90
15707;DHT22;7953;54.302;10.128;2023-11-19T08:18:17;9.00;99.90
15707;DHT22;7953;54.302;10.128;2023-11-19T08:20:44;9.20;99.90
15707;DHT22;7953;54.302;10.128;2023-11-19T08:23:14;9.20;99.90
15707;DHT22;7953;54.302;10.128;2023-11-19T08:25:41;9.30;99.90
15707;DHT22;7953;54.302;10.128;2023-11-19T08:28:08;9.50;99.90
15707;DHT22;7953;54.302;10.128;2023-11-19T08:30:36;9.50;99.90
15707;DHT22;7953;54.302;10.128;2023-11-19T08:33:03;9.70;99.90
15707;DHT22;7953;54.302;10.128;2023-11-19T08:35:31;9.70;99.90
15707;DHT22;7953;54.302;10.128;2023-11-19T08:37:58;9.90;99.90
15707;DHT22;7953;54.302;10.128;2023-11-19T08:40:25;10.00;99.90
15707;DHT22;7953;54.302;10.128;2023-11-19T08:42:52;10.00;99.90
15707;DHT22;7953;54.302;10.128;2023-11-19T08:45:19;10.10;99.90
15707;DHT22;7953;54.302;10.128;2023-11-19T08:47:47;10.10;99.90
15707;DHT22;7953;54.302;10.128;2023-11-19T08:50:14;10.10;99.90
15707;DHT22;7953;54.302;10.128;2023-11-19T08:52:41;10.20;99.90
15707;DHT22;7953;54.302;10.128;2023-11-19T08:55:08;10.10;99.90
15707;DHT22;7953;54.302;10.128;2023-11-19T08:57:35;10.20;99.90
15707;DHT22;7953;54.302;10.128;2023-11-19T09:00:03;10.30;99.90
15707;DHT22;7953;54.302;10.128;2023-11-19T09:02:33;10.30;99.90
15707;DHT22;7953;54.302;10.128;2023-11-19T09:05:01;10.40;99.90
15707;DHT22;7953;54.302;10.128;2023-11-19T09:07:28;10.40;99.90
15707;DHT22;7953;54.302;10.128;2023-11-19T09:09:55;10.30;99.90
15707;DHT22;7953;54.302;10.128;2023-11-19T09:12:22;10.40;99.90
15707;DHT22;7953;54.302;10.128;2023-11-19T09:14:49;10.40;99.90
15707;DHT22;7953;54.302;10.128;2023-11-19T09:17:16;10.40;99.90
15707;DHT22;7953;54.302;10.128;2023-11-19T09:19:44;10.40;99.90
15707;DHT22;7953;54.302;10.128;2023-11-19T09:22:12;10.40;99.90
15707;DHT22;7953;54.302;10.128;2023-11-19T09:24:40;10.40;99.90
15707;DHT22;7953;54.302;10.128;2023-11-19T09:27:07;10.40;99.90
15707;DHT22;7953;54.302;10.128;2023-11-19T09:29:33;10.40;99.90
15707;DHT22;7953;54.302;10.128;2023-11-19T09:32:01;10.50;99.90
15707;DHT22;7953;54.302;10.128;2023-11-19T09:34:27;10.60;99.90
15707;DHT22;7953;54.302;10.128;2023-11-19T09:36:55;10.60;99.90
15707;DHT22;7953;54.302;10.128;2023-11-19T09:39:24;10.70;99.90
15707;DHT22;7953;54.302;10.128;2023-11-19T09:41:51;10.70;99.90
15707;DHT22;7953;54.302;10.128;2023-11-19T09:44:18;10.70;99.90
15707;DHT22;7953;54.302;10.128;2023-11-19T09:46:45;10.70;99.90
15707;DHT22;7953;54.302;10.128;2023-11-19T09:49:15;10.70;99.90
15707;DHT22;7953;54.302;10.128;2023-11-19T09:51:44;10.80;99.90
15707;DHT22;7953;54.302;10.128;2023-11-19T09:54:11;10.70;99.90
15707;DHT22;7953;54.302;10.128;2023-11-19T09:56:40;10.80;99.90
15707;DHT22;7953;54.302;10.128;2023-11-19T09:59:08;10.80;99.90
15707;DHT22;7953;54.302;10.128;2023-11-19T10:01:37;10.80;99.90
15707;DHT22;7953;54.302;10.128;2023-11-19T10:04:06;10.80;99.90
15707;DHT22;7953;54.302;10.128;2023-11-19T10:06:33;10.80;99.90
15707;DHT22;7953;54.302;10.128;2023-11-19T10:09:00;10.80;99.90
15707;DHT22;7953;54.302;10.128;2023-11-19T10:11:30;10.80;99.90
15707;DHT22;7953;54.302;10.128;2023-11-19T10:13:59;10.80;99.90
15707;DHT22;7953;54.302;10.128;2023-11-19T10:16:28;10.70;99.90
15707;DHT22;7953;54.302;10.128;2023-11-19T10:18:56;10.80;99.90
15707;DHT22;7953;54.302;10.128;2023-11-19T10:21:24;10.80;99.90
15707;DHT22;7953;54.302;10.128;2023-11-19T10:23:54;10.80;99.90
15707;DHT22;7953;54.302;10.128;2023-11-19T10:26:23;10.80;99.90
15707;DHT22;7953;54.302;10.128;2023-11-19T10:28:50;10.80;99.90
15707;DHT22;7953;54.302;10.128;2023-11-19T10:31:19;10.80;99.90
15707;DHT22;7953;54.302;10.128;2023-11-19T10:33:50;10.80;99.90
15707;DHT22;7953;54.302;10.128;2023-11-19T10:36:17;10.80;99.90
15707;DHT22;7953;54.302;10.128;2023-11-19T10:38:52;10.90;99.90
15707;DHT22;7953;54.302;10.128;2023-11-19T10:41:26;10.80;99.90
15707;DHT22;7953;54.302;10.128;2023-11-19T10:43:53;10.80;99.90
15707;DHT22;7953;54.302;10.128;2023-11-19T10:46:22;10.80;99.90
15707;DHT22;7953;54.302;10.128;2023-11-19T10:48:49;10.80;99.90
15707;DHT22;7953;54.302;10.128;2023-11-19T10:51:19;10.80;99.90
15707;DHT22;7953;54.302;10.128;2023-11-19T10:53:49;10.80;99.90
15707;DHT22;7953;54.302;10.128;2023-11-19T10:56:17;10.80;99.90
15707;DHT22;7953;54.302;10.128;2023-11-19T10:58:48;10.90;99.90
15707;DHT22;7953;54.302;10.128;2023-11-19T11:01:19;10.90;99.90
15707;DHT22;7953;54.302;10.128;2023-11-19T11:03:47;11.00;99.90
15707;DHT22;7953;54.302;10.128;2023-11-19T11:06:18;11.00;99.90
15707;DHT22;7953;54.302;10.128;2023-11-19T11:08:46;11.00;99.90
15707;DHT22;7953;54.302;10.128;2023-11-19T11:11:16;11.00;99.90
15707;DHT22;7953;54.302;10.128;2023-11-19T11:13:47;11.10;99.90
15707;DHT22;7953;54.302;10.128;2023-11-19T11:16:15;11.10;99.90
15707;DHT22;7953;54.302;10.128;2023-11-19T11:18:44;11.10;99.90
15707;DHT22;7953;54.302;10.128;2023-11-19T11:21:15;11.20;99.90
15707;DHT22;7953;54.302;10.128;2023-11-19T11:24:16;11.20;99.90
15707;DHT22;7953;54.302;10.128;2023-11-19T11:27:01;11.00;99.90
15707;DHT22;7953;54.302;10.128;2023-11-19T11:29:37;11.10;99.90
15707;DHT22;7953;54.302;10.128;2023-11-19T11:32:17;11.10;99.90
15707;DHT22;7953;54.302;10.128;2023-11-19T11:34:58;11.20;99.90
15707;DHT22;7953;54.302;10.128;2023-11-19T11:37:33;11.10;99.90
15707;DHT22;7953;54.302;10.128;2023-11-19T11:40:02;11.10;99.90
15707;DHT22;7953;54.302;10.128;2023-11-19T11:42:36;11.20;99.90
15707;DHT22;7953;54.302;10.128;2023-11-19T11:45:04;11.20;99.90
15707;DHT22;7953;54.302;10.128;2023-11-19T11:50:53;11.10;99.90
15707;DHT22;7953;54.302;10.128;2023-11-19T11:53:22;11.20;99.90
15707;DHT22;7953;54.302;10.128;2023-11-19T11:55:54;11.20;99.90
15707;DHT22;7953;54.302;10.128;2023-11-19T11:58:30;11.20;99.90
15707;DHT22;7953;54.302;10.128;2023-11-19T12:00:58;11.20;99.90
15707;DHT22;7953;54.302;10.128;2023-11-19T12:03:28;11.30;99.90
15707;DHT22;7953;54.302;10.128;2023-11-19T12:05:56;11.30;99.90
15707;DHT22;7953;54.302;10.128;2023-11-19T12:08:28;11.30;99.90
15707;DHT22;7953;54.302;10.128;2023-11-19T12:10:57;11.30;99.90
15707;DHT22;7953;54.302;10.128;2023-11-19T12:13:47;11.30;99.90
15707;DHT22;7953;54.302;10.128;2023-11-19T12:16:14;11.20;99.90
15707;DHT22;7953;54.302;10.128;2023-11-19T12:18:41;11.20;99.90
15707;DHT22;7953;54.302;10.128;2023-11-19T12:21:08;11.20;99.90
15707;DHT22;7953;54.302;10.128;2023-11-19T12:23:46;11.20;99.90
15707;DHT22;7953;54.302;10.128;2023-11-19T12:26:34;11.20;99.90
15707;DHT22;7953;54.302;10.128;2023-11-19T12:29:01;11.20;99.90
15707;DHT22;7953;54.302;10.128;2023-11-19T12:31:29;11.20;99.90
15707;DHT22;7953;54.302;10.128;2023-11-19T12:33:57;11.20;99.90
15707;DHT22;7953;54.302;10.128;2023-11-19T12:36:24;11.20;99.90
15707;DHT22;7953;54.302;10.128;2023-11-19T12:38:52;11.10;99.90
15707;DHT22;7953;54.302;10.128;2023-11-19T12:41:19;11.10;99.90
15707;DHT22;7953;54.302;10.128;2023-11-19T12:43:49;11.10;99.90
15707;DHT22;7953;54.302;10.128;2023-11-19T12:46:20;11.10;99.90
15707;DHT22;7953;54.302;10.128;2023-11-19T12:48:47;11.20;99.90
15707;DHT22;7953;54.302;10.128;2023-11-19T12:51:14;11.20;99.90
15707;DHT22;7953;54.302;10.128;2023-11-19T12:53:48;11.20;99.90
15707;DHT22;7953;54.302;10.128;2023-11-19T12:56:17;11.20;99.90
15707;DHT22;7953;54.302;10.128;2023-11-19T12:58:44;11.10;99.90
15707;DHT22;7953;54.302;10.128;2023-11-19T13:01:16;11.10;99.90
15707;DHT22;7953;54.302;10.128;2023-11-19T13:03:43;11.10;99.90
15707;DHT22;7953;54.302;10.128;2023-11-19T13:06:11;11.10;99.90
15707;DHT22;7953;54.302;10.128;2023-11-19T13:08:40;11.20;99.90
15707;DHT22;7953;54.302;10.128;2023-11-19T13:11:08;11.10;99.90
15707;DHT22;7953;54.302;10.128;2023-11-19T13:13:57;11.10;99.90
15707;DHT22;7953;54.302;10.128;2023-11-19T13:16:26;11.10;99.90
15707;DHT22;7953;54.302;10.128;2023-11-19T13:18:53;11.10;99.90
15707;DHT22;7953;54.302;10.128;2023-11-19T13:21:20;11.10;99.90
15707;DHT22;7953;54.302;10.128;2023-11-19T13:23:47;11.10;99.90
15707;DHT22;7953;54.302;10.128;2023-11-19T13:26:14;11.10;99.90
15707;DHT22;7953;54.302;10.128;2023-11-19T13:28:41;11.10;99.90
15707;DHT22;7953;54.302;10.128;2023-11-19T13:31:10;11.20;99.90
15707;DHT22;7953;54.302;10.128;2023-11-19T13:33:37;11.20;99.90
15707;DHT22;7953;54.302;10.128;2023-11-19T13:36:05;11.10;99.90
15707;DHT22;7953;54.302;10.128;2023-11-19T13:38:33;11.20;99.90
15707;DHT22;7953;54.302;10.128;2023-11-19T13:41:00;11.20;99.90
15707;DHT22;7953;54.302;10.128;2023-11-19T13:43:27;11.20;99.90
15707;DHT22;7953;54.302;10.128;2023-11-19T13:45:54;11.20;99.90
15707;DHT22;7953;54.302;10.128;2023-11-19T13:48:23;11.10;99.90
15707;DHT22;7953;54.302;10.128;2023-11-19T13:50:50;11.00;99.90
15707;DHT22;7953;54.302;10.128;2023-11-19T13:53:17;11.10;99.90
15707;DHT22;7953;54.302;10.128;2023-11-19T13:55:43;11.00;99.90
15707;DHT22;7953;54.302;10.128;2023-11-19T13:58:10;11.00;99.90
15707;DHT22;7953;54.302;10.128;2023-11-19T14:00:37;11.10;99.90
15707;DHT22;7953;54.302;10.128;2023-11-19T14:03:05;11.10;99.90
15707;DHT22;7953;54.302;10.128;2023-11-19T14:05:34;11.10;99.90
15707;DHT22;7953;54.302;10.128;2023-11-19T14:08:00;11.00;99.90
15707;DHT22;7953;54.302;10.128;2023-11-19T14:10:27;11.00;99.90
15707;DHT22;7953;54.302;10.128;2023-11-19T14:12:54;11.00;99.90
15707;DHT22;7953;54.302;10.128;2023-11-19T14:15:21;11.00;99.90
15707;DHT22;7953;54.302;10.128;2023-11-19T14:17:48;11.00;99.90
15707;DHT22;7953;54.302;10.128;2023-11-19T14:20:15;10.90;99.90
15707;DHT22;7953;54.302;10.128;2023-11-19T14:22:45;10.90;99.90
15707;DHT22;7953;54.302;10.128;2023-11-19T14:25:14;10.90;99.90
15707;DHT22;7953;54.302;10.128;2023-11-19T14:27:42;10.90;99.90
15707;DHT22;7953;54.302;10.128;2023-11-19T14:30:11;10.90;99.90
15707;DHT22;7953;54.302;10.128;2023-11-19T14:32:39;10.90;99.90
15707;DHT22;7953;54.302;10.128;2023-11-19T14:35:08;10.90;99.90
15707;DHT22;7953;54.302;10.128;2023-11-19T14:37:35;10.90;99.90
15707;DHT22;7953;54.302;10.128;2023-11-19T14:40:04;10.90;99.90
15707;DHT22;7953;54.302;10.128;2023-11-19T14:42:31;10.90;99.90
15707;DHT22;7953;54.302;10.128;2023-11-19T14:44:58;10.90;99.90
15707;DHT22;7953;54.302;10.128;2023-11-19T14:47:25;10.90;99.90
15707;DHT22;7953;54.302;10.128;2023-11-19T14:49:52;10.90;99.90
15707;DHT22;7953;54.302;10.128;2023-11-19T14:52:19;10.80;99.90
15707;DHT22;7953;54.302;10.128;2023-11-19T14:54:46;10.80;99.90
15707;DHT22;7953;54.302;10.128;2023-11-19T14:57:14;10.80;99.90
15707;DHT22;7953;54.302;10.128;2023-11-19T14:59:41;10.80;99.90
15707;DHT22;7953;54.302;10.128;2023-11-19T15:02:08;10.70;99.90
15707;DHT22;7953;54.302;10.128;2023-11-19T15:04:36;10.70;99.90
15707;DHT22;7953;54.302;10.128;2023-11-19T15:07:03;10.70;99.90
15707;DHT22;7953;54.302;10.128;2023-11-19T15:09:30;10.70;99.90
15707;DHT22;7953;54.302;10.128;2023-11-19T15:11:58;10.60;99.90
15707;DHT22;7953;54.302;10.128;2023-11-19T15:14:26;10.60;99.90
15707;DHT22;7953;54.302;10.128;2023-11-19T15:16:54;10.60;99.90
15707;DHT22;7953;54.302;10.128;2023-11-19T15:19:21;10.70;99.90
15707;DHT22;7953;54.302;10.128;2023-11-19T15:21:49;10.70;99.90
15707;DHT22;7953;54.302;10.128;2023-11-19T15:24:15;10.70;99.90
15707;DHT22;7953;54.302;10.128;2023-11-19T15:26:43;10.70;99.90
15707;DHT22;7953;54.302;10.128;2023-11-19T15:29:09;10.70;99.90
15707;DHT22;7953;54.302;10.128;2023-11-19T15:31:38;10.60;99.90
15707;DHT22;7953;54.302;10.128;2023-11-19T15:34:06;10.60;99.90
15707;DHT22;7953;54.302;10.128;2023-11-19T15:36:33;10.50;99.90
15707;DHT22;7953;54.302;10.128;2023-11-19T15:39:01;10.50;99.90
15707;DHT22;7953;54.302;10.128;2023-11-19T15:41:28;10.50;99.90
15707;DHT22;7953;54.302;10.128;2023-11-19T15:43:57;10.50;99.90
15707;DHT22;7953;54.302;10.128;2023-11-19T15:46:23;10.50;99.90
15707;DHT22;7953;54.302;10.128;2023-11-19T15:48:52;10.50;99.90